Time;durP1;ratioP1;P1;durP2;ratioP2;P2;SDS_P1;SDS_P2;PMS_P1;PMS_P2;Temp;Humidity;BMP_temperature;BMP_pressure;BME280_temperature;BME280_humidity;BME280_pressure;Samples;Min_cycle;Max_cycle;Signal;HPM_P1;HPM_P2
2021/09/30 00:00:56;;;;;;;0.40;0.40;;;10.50;99.90;10.40;101258.00;;;;4970585;28;115443;-66
2021/09/30 00:03:21;;;;;;;0.47;0.40;;;10.10;99.90;10.40;101267.00;;;;4952689;28;93112;-66
2021/09/30 00:05:47;;;;;;;0.77;0.50;;;10.40;99.90;10.40;101265.00;;;;4973689;28;92683;-67
2021/09/30 00:08:13;;;;;;;0.63;0.33;;;10.40;99.90;10.30;101260.00;;;;4972561;28;122526;-65
2021/09/30 00:10:47;;;;;;;0.40;0.37;;;10.40;99.90;10.30;101267.00;;;;4972462;28;123134;-65
2021/09/30 00:32:44;;;;;;;0.30;0.27;;;10.00;99.90;9.90;101273.00;;;;4970884;28;92689;-65
2021/09/30 00:40:53;;;;;;;0.60;0.60;;;9.80;99.90;9.70;101275.00;;;;4970690;28;93044;-66
2021/09/30 00:46:09;;;;;;;0.60;0.43;;;9.70;99.90;9.50;101276.00;;;;4970990;28;92851;-66
2021/09/30 01:20:23;;;;;;;0.93;0.43;;;9.30;99.90;9.20;101296.00;;;;4956577;28;94073;-64
2021/09/30 01:52:07;;;;;;;0.47;0.47;;;8.90;99.90;8.90;101316.00;;;;4973641;28;93639;-66
2021/09/30 01:59:17;;;;;;;0.73;0.50;;;8.90;99.90;8.90;101329.00;;;;4974160;28;92699;-66
2021/09/30 02:28:56;;;;;;;4.47;0.90;;;8.80;99.90;8.70;101350.00;;;;4973133;28;93065;-66
2021/09/30 02:34:35;;;;;;;1.60;0.70;;;8.80;99.90;8.70;101348.00;;;;4975538;28;93256;-66
2021/09/30 02:59:07;;;;;;;0.30;0.30;;;8.70;99.90;8.60;101373.00;;;;4963440;28;92788;-66
2021/09/30 03:01:34;;;;;;;0.60;0.60;;;8.60;99.90;8.50;101382.00;;;;4976068;28;92190;-65
2021/09/30 03:04:01;;;;;;;0.60;0.60;;;8.60;99.90;8.50;101379.00;;;;4955808;28;93016;-64
2021/09/30 03:06:28;;;;;;;0.60;0.60;;;8.60;99.90;8.50;101392.00;;;;4974593;28;106902;-64
2021/09/30 03:08:58;;;;;;;0.83;0.63;;;8.60;99.90;8.50;101392.00;;;;4972972;28;93651;-65
2021/09/30 03:11:26;;;;;;;1.17;1.00;;;8.60;99.90;8.60;101391.00;;;;4975927;28;93202;-65
2021/09/30 03:13:57;;;;;;;0.70;0.70;;;8.60;99.90;8.60;101392.00;;;;4972867;28;92749;-65
2021/09/30 03:16:29;;;;;;;0.57;0.57;;;8.60;99.90;8.60;101394.00;;;;4972291;28;96460;-65
2021/09/30 03:18:58;;;;;;;0.50;0.50;;;8.60;99.90;8.60;101397.00;;;;4972659;28;92857;-65
2021/09/30 03:24:12;;;;;;;0.50;0.50;;;8.60;99.90;8.50;101394.00;;;;4971405;28;93134;-66
2021/09/30 03:26:39;;;;;;;1.07;0.63;;;8.60;99.90;8.60;101406.00;;;;4974698;28;92895;-65
2021/09/30 03:29:07;;;;;;;1.30;0.70;;;8.60;99.90;8.60;101408.00;;;;4955918;28;92971;-67
2021/09/30 03:31:33;;;;;;;3.27;0.70;;;8.60;99.90;8.60;101409.00;;;;4956943;28;92953;-65
2021/09/30 03:34:03;;;;;;;0.77;0.50;;;8.60;99.90;8.60;101412.00;;;;4971323;28;96751;-66
2021/09/30 03:36:29;;;;;;;1.53;0.60;;;8.60;99.90;8.60;101412.00;;;;4956179;28;94472;-66
2021/09/30 03:38:55;;;;;;;0.60;0.50;;;8.60;99.90;8.60;101412.00;;;;4974857;28;93000;-65
2021/09/30 03:41:21;;;;;;;2.93;0.70;;;8.60;99.90;8.60;101403.00;;;;4975249;28;92689;-65
2021/09/30 03:43:47;;;;;;;0.27;0.27;;;8.60;99.90;8.60;101408.00;;;;4972835;28;123711;-65
2021/09/30 03:46:13;;;;;;;0.43;0.43;;;8.70;99.90;8.60;101406.00;;;;4967888;28;115327;-65
2021/09/30 03:48:39;;;;;;;0.60;0.50;;;8.60;99.90;8.70;101402.00;;;;4972675;28;92943;-65
2021/09/30 03:51:13;;;;;;;0.73;0.67;;;8.70;99.90;8.70;101406.00;;;;4975321;28;92333;-65
2021/09/30 03:53:53;;;;;;;1.47;0.90;;;8.70;99.90;8.70;101407.00;;;;4973500;28;93694;-65
2021/09/30 04:01:29;;;;;;;0.60;0.60;;;8.80;99.90;8.80;101420.00;;;;4972124;28;92555;-64
2021/09/30 04:03:55;;;;;;;0.77;0.50;;;8.80;99.90;8.80;101415.00;;;;4972891;28;102486;-65
2021/09/30 04:06:21;;;;;;;1.47;0.80;;;8.80;99.90;8.80;101414.00;;;;4972730;28;122045;-65
2021/09/30 04:08:47;;;;;;;0.87;0.70;;;8.80;99.90;8.70;101412.00;;;;4971704;28;110699;-64
2021/09/30 04:11:13;;;;;;;0.90;0.50;;;8.80;99.90;8.70;101412.00;;;;4974304;28;92757;-65
2021/09/30 04:13:39;;;;;;;0.47;0.47;;;8.70;99.90;8.70;101414.00;;;;4973383;28;93924;-64
2021/09/30 04:16:05;;;;;;;0.20;0.20;;;8.80;99.90;8.70;101420.00;;;;4973158;28;121972;-65
2021/09/30 04:18:31;;;;;;;0.60;0.60;;;8.70;99.90;8.70;101423.00;;;;4974349;28;93211;-64
2021/09/30 04:20:56;;;;;;;0.23;0.23;;;8.70;99.90;8.60;101418.00;;;;4974066;28;92875;-65
2021/09/30 04:23:22;;;;;;;1.60;0.70;;;8.70;99.90;8.60;101418.00;;;;4942995;28;122201;-64
2021/09/30 04:25:48;;;;;;;0.70;0.60;;;8.70;99.90;8.50;101410.00;;;;4972901;28;94111;-64
2021/09/30 04:28:14;;;;;;;0.40;0.40;;;8.60;99.90;8.50;101423.00;;;;4972929;28;101415;-64
2021/09/30 04:30:41;;;;;;;0.60;0.60;;;8.60;99.90;8.50;101418.00;;;;4974756;28;92942;-65
2021/09/30 04:33:07;;;;;;;0.77;0.77;;;8.60;99.90;8.50;101416.00;;;;4973743;28;102680;-64
2021/09/30 04:35:33;;;;;;;0.40;0.40;;;8.60;99.90;8.50;101438.00;;;;4973155;28;93762;-64
2021/09/30 04:37:58;;;;;;;0.80;0.60;;;8.60;99.90;8.50;101426.00;;;;4972811;28;110580;-66
2021/09/30 04:40:24;;;;;;;0.40;0.40;;;8.60;99.90;8.50;101422.00;;;;4974633;28;92063;-65
2021/09/30 04:42:50;;;;;;;0.80;0.50;;;8.60;99.90;8.50;101428.00;;;;4972625;28;122213;-64
2021/09/30 04:45:16;;;;;;;1.03;0.40;;;8.60;99.90;8.50;101433.00;;;;4954627;28;103013;-67
2021/09/30 04:47:42;;;;;;;1.03;0.93;;;8.60;99.90;8.50;101426.00;;;;4973842;28;93700;-65
2021/09/30 04:50:09;;;;;;;0.57;0.47;;;8.50;99.90;8.40;101443.00;;;;4972532;28;108709;-67
2021/09/30 04:52:35;;;;;;;1.43;0.63;;;8.50;99.90;8.40;101442.00;;;;4972238;28;93996;-66
2021/09/30 04:55:01;;;;;;;1.03;0.60;;;8.50;99.90;8.40;101433.00;;;;4970146;28;122792;-66
2021/09/30 04:57:27;;;;;;;0.90;0.90;;;8.50;99.90;8.40;101445.00;;;;4970220;28;93598;-67
2021/09/30 04:59:53;;;;;;;0.77;0.73;;;8.50;99.90;8.40;101443.00;;;;4952178;28;92818;-66
2021/09/30 05:02:19;;;;;;;0.70;0.40;;;8.40;99.90;8.30;101439.00;;;;4970236;28;103385;-66
2021/09/30 05:04:45;;;;;;;3.17;0.80;;;8.30;99.90;8.30;101451.00;;;;4969620;28;122139;-66
2021/09/30 05:07:10;;;;;;;0.90;0.70;;;8.40;99.90;8.30;101445.00;;;;4969360;28;111014;-66
2021/09/30 05:09:36;;;;;;;0.60;0.60;;;8.40;99.90;8.30;101445.00;;;;4969134;28;108890;-67
2021/09/30 05:12:03;;;;;;;1.50;0.93;;;8.40;99.90;8.30;101447.00;;;;4969913;28;95112;-66
2021/09/30 05:14:29;;;;;;;0.50;0.50;;;8.40;99.90;8.30;101443.00;;;;4961446;28;93449;-66
2021/09/30 05:16:55;;;;;;;0.63;0.60;;;8.40;99.90;8.40;101446.00;;;;4970709;28;93085;-65
2021/09/30 05:19:21;;;;;;;1.10;0.60;;;8.40;99.90;8.40;101452.00;;;;4970105;28;92766;-67
2021/09/30 05:21:47;;;;;;;0.60;0.60;;;8.40;99.90;8.40;101457.00;;;;4970032;28;93586;-64
2021/09/30 05:24:13;;;;;;;0.57;0.40;;;8.40;99.90;8.40;101448.00;;;;4969262;28;122443;-66
2021/09/30 05:26:39;;;;;;;1.13;0.87;;;8.50;99.90;8.40;101463.00;;;;4968744;28;108321;-66
2021/09/30 05:29:06;;;;;;;3.77;0.50;;;8.50;99.90;8.40;101456.00;;;;4970659;28;92368;-67
2021/09/30 05:31:32;;;;;;;4.43;0.60;;;8.50;99.90;8.50;101465.00;;;;4969748;28;93081;-66
2021/09/30 05:33:59;;;;;;;0.43;0.40;;;8.90;99.90;8.60;101465.00;;;;4969780;28;95043;-67
2021/09/30 05:36:25;;;;;;;0.60;0.60;;;8.60;99.90;8.60;101466.00;;;;4970105;28;93697;-66
2021/09/30 05:38:51;;;;;;;0.63;0.50;;;8.70;99.90;8.70;101470.00;;;;4969765;28;93048;-67
2021/09/30 05:41:17;;;;;;;0.60;0.60;;;8.70;99.90;8.80;101471.00;;;;4953501;28;103625;-65
2021/09/30 05:43:49;;;;;;;2.07;0.57;;;8.80;99.90;8.90;101474.00;;;;4959728;28;93064;-65
2021/09/30 05:46:16;;;;;;;4.57;0.83;;;8.90;99.90;9.00;101473.00;;;;4969785;28;92806;-65
2021/09/30 05:48:42;;;;;;;2.60;0.73;;;9.00;99.90;9.10;101484.00;;;;4970254;28;92742;-66
2021/09/30 05:51:07;;;;;;;0.40;0.40;;;9.10;99.90;9.20;101482.00;;;;4972020;28;124179;-66
2021/09/30 05:53:33;;;;;;;0.60;0.60;;;9.20;99.90;9.30;101488.00;;;;4971719;28;121686;-67
2021/09/30 05:55:59;;;;;;;0.47;0.47;;;9.30;99.90;9.50;101492.00;;;;4968520;28;110156;-67
2021/09/30 05:58:25;;;;;;;1.83;0.60;;;9.40;99.90;9.60;101484.00;;;;4968441;28;108853;-65
2021/09/30 06:01:02;;;;;;;0.63;0.50;;;9.50;99.90;9.70;101493.00;;;;4968282;28;94895;-65
2021/09/30 06:14:16;;;;;;;0.93;0.73;;;10.10;99.90;10.20;101502.00;;;;4965222;28;92997;-66
2021/09/30 06:16:47;;;;;;;0.90;0.50;;;10.20;99.90;10.30;101512.00;;;;4969903;28;92892;-65
2021/09/30 06:19:13;;;;;;;1.70;0.60;;;10.30;99.90;10.40;101519.00;;;;4969424;28;92103;-66
2021/09/30 06:21:40;;;;;;;0.30;0.30;;;10.50;99.90;10.60;101510.00;;;;4969021;28;93103;-66
2021/09/30 06:24:07;;;;;;;0.90;0.90;;;10.50;99.90;10.70;101521.00;;;;4968303;28;104895;-66
2021/09/30 06:26:34;;;;;;;0.40;0.40;;;10.60;99.90;10.80;101531.00;;;;4968182;28;94002;-66
2021/09/30 06:28:59;;;;;;;1.13;0.83;;;10.80;99.90;10.90;101526.00;;;;4968251;28;109940;-68
2021/09/30 06:31:25;;;;;;;1.27;0.80;;;10.90;99.90;11.10;101532.00;;;;4967896;28;123066;-65
2021/09/30 06:33:52;;;;;;;1.07;0.63;;;11.10;99.90;11.20;101534.00;;;;4972016;28;93651;-66
2021/09/30 06:36:18;;;;;;;0.83;0.80;;;11.20;99.90;11.40;101537.00;;;;4972637;28;93035;-66
2021/09/30 06:38:44;;;;;;;1.53;1.00;;;11.30;99.90;11.40;101532.00;;;;4971502;28;93055;-67
2021/09/30 06:41:10;;;;;;;1.63;0.83;;;11.40;99.90;11.50;101533.00;;;;4971505;28;118000;-64
2021/09/30 06:43:35;;;;;;;1.10;0.53;;;11.50;99.90;11.70;101548.00;;;;4963389;28;122197;-65
2021/09/30 06:46:01;;;;;;;2.63;0.80;;;11.60;99.90;11.70;101548.00;;;;4973333;28;109230;-65
2021/09/30 06:48:27;;;;;;;0.73;0.70;;;11.70;99.90;11.90;101548.00;;;;4968134;28;109038;-64
2021/09/30 06:50:53;;;;;;;1.13;0.80;;;11.90;99.90;12.00;101541.00;;;;4972067;28;94048;-65
2021/09/30 06:53:19;;;;;;;0.70;0.70;;;12.00;99.90;12.10;101548.00;;;;4952935;28;101987;-64
2021/09/30 06:55:45;;;;;;;0.40;0.40;;;12.10;99.90;12.20;101553.00;;;;4971362;28;111417;-66
2021/09/30 06:58:11;;;;;;;3.00;0.97;;;12.20;99.90;12.30;101559.00;;;;4972023;28;93271;-65
2021/09/30 07:00:41;;;;;;;1.40;1.00;;;12.30;99.90;12.40;101560.00;;;;4972504;28;93419;-65
2021/09/30 07:03:10;;;;;;;2.87;1.00;;;12.30;99.90;12.60;101569.00;;;;4968165;28;93684;-65
2021/09/30 07:05:36;;;;;;;0.80;0.77;;;12.50;99.90;12.70;101551.00;;;;4970634;28;109697;-65
2021/09/30 07:08:03;;;;;;;1.73;0.97;;;12.70;99.90;12.80;101567.00;;;;4971585;28;98551;-65
2021/09/30 07:10:29;;;;;;;0.80;0.80;;;12.80;99.70;13.00;101572.00;;;;4975130;28;94599;-65
2021/09/30 07:12:55;;;;;;;0.50;0.43;;;12.90;98.70;13.00;101571.00;;;;4971706;28;94575;-67
2021/09/30 07:15:21;;;;;;;0.67;0.63;;;13.00;98.20;13.10;101569.00;;;;4954034;28;110010;-65
2021/09/30 07:17:47;;;;;;;0.67;0.67;;;13.10;98.00;13.20;101570.00;;;;4969099;28;93191;-65
2021/09/30 07:20:12;;;;;;;0.83;0.47;;;13.20;97.00;13.30;101566.00;;;;4961982;28;99566;-66
2021/09/30 07:22:39;;;;;;;1.40;0.57;;;13.30;96.10;13.30;101566.00;;;;4971173;28;123188;-66
2021/09/30 07:25:05;;;;;;;2.17;0.57;;;13.40;95.60;13.40;101569.00;;;;4970205;28;98566;-65
2021/09/30 07:27:31;;;;;;;0.30;0.30;;;13.40;96.30;13.60;101581.00;;;;4971787;28;93144;-65
2021/09/30 07:29:57;;;;;;;0.50;0.40;;;13.50;96.80;13.80;101581.00;;;;4940700;28;93871;-66
2021/09/30 07:32:24;;;;;;;2.63;0.60;;;13.70;95.60;13.90;101583.00;;;;4971589;28;122487;-67
2021/09/30 07:34:51;;;;;;;1.57;0.70;;;13.80;94.10;13.90;101585.00;;;;4953099;28;93313;-66
2021/09/30 07:37:18;;;;;;;2.00;0.70;;;13.90;95.00;14.00;101580.00;;;;4971847;28;92977;-65
2021/09/30 07:39:44;;;;;;;0.60;0.33;;;14.00;94.10;14.20;101579.00;;;;4970530;28;95054;-66
2021/09/30 07:42:10;;;;;;;1.47;1.10;;;14.10;94.20;14.30;101584.00;;;;4971059;28;123986;-66
2021/09/30 07:44:37;;;;;;;0.50;0.50;;;14.30;92.80;14.40;101582.00;;;;4969779;28;92806;-67
2021/09/30 07:47:04;;;;;;;0.67;0.67;;;14.40;92.20;14.40;101584.00;;;;4971448;28;92716;-67
2021/09/30 07:49:30;;;;;;;1.10;0.70;;;14.50;92.40;14.50;101580.00;;;;4964102;28;92915;-65
2021/09/30 07:51:57;;;;;;;1.53;0.60;;;14.40;92.00;14.60;101584.00;;;;4970993;28;93097;-65
2021/09/30 07:54:23;;;;;;;0.87;0.67;;;14.60;92.30;14.70;101586.00;;;;4970965;28;92996;-65
2021/09/30 07:56:50;;;;;;;1.27;0.70;;;14.60;92.20;14.90;101593.00;;;;4970996;28;108889;-66
2021/09/30 07:59:15;;;;;;;0.70;0.60;;;14.80;91.00;15.00;101601.00;;;;4969856;28;119550;-66
2021/09/30 08:01:41;;;;;;;0.73;0.67;;;14.90;91.00;15.10;101592.00;;;;4971255;28;101182;-65
2021/09/30 08:04:07;;;;;;;2.07;0.63;;;15.00;89.70;15.10;101598.00;;;;4969834;28;110709;-65
2021/09/30 08:06:33;;;;;;;0.57;0.53;;;15.10;88.90;15.20;101590.00;;;;4970966;28;92930;-66
2021/09/30 08:08:59;;;;;;;0.60;0.40;;;15.20;89.00;15.20;101602.00;;;;4970595;28;93993;-66
2021/09/30 08:11:27;;;;;;;1.30;0.47;;;15.20;88.00;15.30;101596.00;;;;4970913;28;96683;-66
2021/09/30 08:13:53;;;;;;;0.27;0.27;;;15.30;86.80;15.50;101600.00;;;;4970838;28;92826;-66
2021/09/30 08:16:21;;;;;;;0.53;0.53;;;15.40;86.00;15.50;101601.00;;;;4971228;28;92897;-66
2021/09/30 08:18:47;;;;;;;0.60;0.60;;;15.50;86.00;15.60;101600.00;;;;4960680;28;93945;-65
2021/09/30 08:21:14;;;;;;;3.23;0.80;;;15.60;88.00;15.90;101607.00;;;;4967693;28;101051;-65
2021/09/30 08:23:44;;;;;;;11.23;1.03;;;15.80;88.20;16.10;101604.00;;;;4969998;28;92851;-65
2021/09/30 08:26:10;;;;;;;0.53;0.53;;;16.00;83.90;16.20;101615.00;;;;4970838;28;94691;-66
2021/09/30 08:28:37;;;;;;;0.80;0.43;;;16.10;83.50;16.30;101618.00;;;;4969478;28;93579;-65
2021/09/30 08:31:04;;;;;;;0.65;0.60;;;16.20;81.10;16.30;101615.00;;;;4970790;28;94620;-65
2021/09/30 08:33:30;;;;;;;2.17;0.90;;;16.30;79.50;16.30;101624.00;;;;4957883;28;93287;-66
2021/09/30 08:35:56;;;;;;;11.32;0.65;;;16.30;79.90;16.50;101625.00;;;;4970130;28;92837;-65
2021/09/30 08:38:21;;;;;;;0.85;0.60;;;16.40;78.40;16.50;101624.00;;;;4969050;28;122406;-65
2021/09/30 08:40:47;;;;;;;1.23;0.60;;;16.50;79.60;16.60;101620.00;;;;4969830;28;116278;-66
2021/09/30 08:43:14;;;;;;;1.35;0.75;;;16.60;77.00;16.60;101620.00;;;;4970479;28;92554;-65
2021/09/30 08:45:39;;;;;;;4.45;1.33;;;16.50;75.80;16.50;101630.00;;;;4970972;28;92325;-65
2021/09/30 08:48:07;;;;;;;0.77;0.65;;;16.50;77.20;16.60;101629.00;;;;4969639;28;94284;-65
2021/09/30 08:50:40;;;;;;;0.73;0.55;;;16.60;77.10;16.60;101639.00;;;;4951596;28;93883;-66
2021/09/30 08:53:09;;;;;;;2.63;0.93;;;16.60;77.70;16.80;101626.00;;;;4970275;28;93667;-65
2021/09/30 08:55:36;;;;;;;3.20;0.95;;;16.80;76.00;16.80;101635.00;;;;4962744;28;93041;-65
2021/09/30 08:58:03;;;;;;;2.03;0.98;;;16.80;73.10;16.70;101633.00;;;;4969532;28;93914;-65
2021/09/30 09:00:31;;;;;;;2.45;0.80;;;16.70;73.00;16.70;101642.00;;;;4970379;28;93621;-65
2021/09/30 09:02:57;;;;;;;1.83;0.90;;;16.60;72.00;16.50;101645.00;;;;4966025;28;93966;-66
2021/09/30 09:05:25;;;;;;;1.02;0.90;;;16.60;73.70;16.60;101640.00;;;;4966190;28;92853;-66
2021/09/30 09:08:04;;;;;;;1.35;0.70;;;16.60;74.00;16.70;101637.00;;;;4969260;28;93495;-66
2021/09/30 09:10:33;;;;;;;0.90;0.73;;;16.70;72.60;16.60;101653.00;;;;4970509;28;93534;-66
2021/09/30 09:13:15;;;;;;;2.00;0.65;;;16.50;73.60;16.70;101639.00;;;;4969928;28;93618;-66
2021/09/30 09:15:54;;;;;;;3.03;0.70;;;16.60;74.00;16.80;101639.00;;;;4969677;28;93531;-65
2021/09/30 09:18:28;;;;;;;0.65;0.43;;;16.70;74.10;16.90;101642.00;;;;4968493;28;94503;-65
2021/09/30 09:21:22;;;;;;;1.27;0.70;;;16.80;73.30;17.00;101638.00;;;;4966419;28;94606;-65
2021/09/30 09:24:00;;;;;;;1.70;0.52;;;16.90;74.00;17.30;101641.00;;;;4950716;28;92838;-69
2021/09/30 09:26:38;;;;;;;0.63;0.50;;;17.10;73.60;17.60;101657.00;;;;4951387;28;93152;-68
2021/09/30 09:29:14;;;;;;;0.88;0.70;;;17.40;72.80;17.80;101656.00;;;;4952199;28;92937;-68
2021/09/30 09:31:46;;;;;;;2.80;1.15;;;17.60;71.70;17.90;101644.00;;;;4968965;28;105642;-69
2021/09/30 09:34:39;;;;;;;0.60;0.50;;;17.80;68.00;17.90;101644.00;;;;4951750;28;93007;-68
2021/09/30 09:37:27;;;;;;;3.05;0.60;;;17.70;67.90;17.80;101656.00;;;;4984845;28;92388;-69
2021/09/30 09:39:53;;;;;;;0.63;0.52;;;17.70;68.20;17.80;101651.00;;;;4964241;28;92689;-68
2021/09/30 09:42:25;;;;;;;0.90;0.63;;;17.70;68.60;17.90;101651.00;;;;4973694;28;122570;-70
2021/09/30 09:45:01;;;;;;;0.30;0.30;;;17.80;68.50;17.90;101654.00;;;;4967222;28;93841;-69
2021/09/30 09:47:32;;;;;;;1.58;0.70;;;17.80;67.50;17.90;101663.00;;;;4969566;28;92972;-68
2021/09/30 09:50:25;;;;;;;3.92;0.75;;;17.70;67.40;17.80;101658.00;;;;4969713;28;93244;-68
2021/09/30 09:52:53;;;;;;;0.40;0.40;;;17.70;66.00;17.80;101664.00;;;;4953225;28;95178;-69
2021/09/30 09:55:26;;;;;;;2.63;0.63;;;17.60;66.60;17.80;101656.00;;;;4969337;28;92736;-70
2021/09/30 09:58:06;;;;;;;2.30;0.50;;;17.70;67.80;18.10;101665.00;;;;4969541;28;93268;-68
2021/09/30 10:00:38;;;;;;;0.57;0.40;;;17.80;69.00;18.40;101660.00;;;;4950754;28;93666;-69
2021/09/30 10:03:23;;;;;;;1.98;0.60;;;18.10;69.00;18.80;101665.00;;;;4954407;28;99168;-70
2021/09/30 10:05:49;;;;;;;0.68;0.68;;;18.50;66.80;18.90;101671.00;;;;4953569;28;93171;-68
2021/09/30 10:08:16;;;;;;;1.17;0.65;;;18.70;64.20;19.00;101661.00;;;;4972585;28;92882;-69
2021/09/30 10:10:45;;;;;;;0.88;0.77;;;19.00;63.00;19.00;101663.00;;;;4971824;28;118180;-68
2021/09/30 10:13:11;;;;;;;0.40;0.40;;;18.80;63.70;19.00;101655.00;;;;4971930;28;94686;-68
2021/09/30 10:15:39;;;;;;;0.95;0.55;;;18.80;62.40;18.90;101656.00;;;;4972808;28;92822;-69
2021/09/30 10:18:09;;;;;;;0.75;0.30;;;18.70;63.10;18.80;101658.00;;;;4955376;28;92978;-70
2021/09/30 10:20:36;;;;;;;1.13;0.50;;;18.70;61.90;18.50;101660.00;;;;4972325;28;101762;-68
2021/09/30 10:23:05;;;;;;;0.50;0.50;;;18.40;61.30;18.20;101663.00;;;;4968001;28;92819;-68
2021/09/30 10:25:42;;;;;;;7.50;0.90;;;18.20;62.10;18.20;101665.00;;;;4948678;28;92843;-69
2021/09/30 10:28:09;;;;;;;1.65;0.50;;;18.10;64.00;18.50;101663.00;;;;4972897;28;92132;-68
2021/09/30 10:30:46;;;;;;;2.67;0.60;;;18.30;64.80;18.90;101672.00;;;;4972417;28;94035;-70
2021/09/30 10:33:20;;;;;;;2.25;0.47;;;18.50;64.90;18.90;101675.00;;;;4972096;28;92911;-69
2021/09/30 10:35:53;;;;;;;0.40;0.40;;;18.70;61.50;18.90;101659.00;;;;4972120;28;93805;-69
2021/09/30 10:38:31;;;;;;;0.50;0.50;;;18.70;62.10;18.80;101670.00;;;;4951276;28;92852;-69
2021/09/30 10:41:00;;;;;;;1.27;0.55;;;18.60;62.20;18.70;101663.00;;;;4972154;28;93396;-69
2021/09/30 10:43:28;;;;;;;0.70;0.60;;;18.50;62.20;18.80;101667.00;;;;4972313;28;94573;-69
2021/09/30 10:45:54;;;;;;;0.95;0.60;;;18.60;62.80;19.00;101665.00;;;;4972743;28;92800;-70
2021/09/30 10:48:30;;;;;;;2.67;0.90;;;18.80;61.90;19.20;101673.00;;;;4971776;28;93719;-69
2021/09/30 10:51:09;;;;;;;0.55;0.40;;;18.90;61.80;19.20;101676.00;;;;4954176;28;95179;-68
2021/09/30 10:53:47;;;;;;;2.00;0.47;;;19.00;61.20;19.40;101676.00;;;;4971348;28;93371;-68
2021/09/30 10:56:26;;;;;;;1.65;0.43;;;19.10;61.90;19.70;101673.00;;;;4972601;28;92943;-68
2021/09/30 10:58:58;;;;;;;0.38;0.38;;;19.20;61.40;19.70;101660.00;;;;4972278;28;92827;-67
2021/09/30 11:01:24;;;;;;;3.05;0.50;;;19.50;59.20;19.60;101666.00;;;;4971602;28;97630;-69
2021/09/30 11:04:17;;;;;;;3.78;0.60;;;19.60;58.40;19.60;101651.00;;;;4970920;28;123084;-68
2021/09/30 11:07:12;;;;;;;0.80;0.50;;;19.40;58.00;19.60;101649.00;;;;4968574;28;93599;-70
2021/09/30 11:09:38;;;;;;;1.38;0.63;;;19.50;58.10;19.50;101656.00;;;;4951315;28;92793;-72
2021/09/30 11:12:12;;;;;;;0.57;0.47;;;19.40;58.20;19.50;101661.00;;;;4975027;28;124594;-69
2021/09/30 11:14:52;;;;;;;0.95;0.50;;;19.30;58.30;19.50;101660.00;;;;4970614;28;92853;-68
2021/09/30 11:17:40;;;;;;;0.25;0.25;;;19.30;57.90;19.20;101662.00;;;;4972018;28;93785;-68
2021/09/30 11:20:32;;;;;;;0.40;0.40;;;19.20;58.10;19.20;101652.00;;;;4970677;28;109724;-69
2021/09/30 11:22:59;;;;;;;3.70;0.77;;;19.10;58.90;19.00;101657.00;;;;4950868;28;93520;-67
2021/09/30 11:26:06;;;;;;;1.58;0.70;;;18.90;58.90;18.60;101645.00;;;;4969551;28;105390;-69
2021/09/30 11:28:31;;;;;;;2.45;0.52;;;18.60;58.80;18.70;101650.00;;;;4971195;28;93773;-70
2021/09/30 11:31:27;;;;;;;0.30;0.30;;;18.50;59.70;19.10;101653.00;;;;4970761;28;108004;-70
2021/09/30 11:33:58;;;;;;;1.88;0.57;;;18.80;59.70;19.10;101649.00;;;;4964274;28;93321;-69
2021/09/30 11:36:33;;;;;;;0.32;0.32;;;18.90;58.10;19.00;101657.00;;;;4971291;28;103333;-68
2021/09/30 11:38:58;;;;;;;0.63;0.50;;;18.80;56.60;18.70;101663.00;;;;4968727;28;93799;-70
2021/09/30 11:41:33;;;;;;;0.93;0.43;;;18.60;57.10;18.30;101662.00;;;;4955609;28;92853;-69
2021/09/30 11:43:59;;;;;;;0.45;0.45;;;18.30;57.90;18.20;101657.00;;;;4971522;28;94130;-68
2021/09/30 11:46:31;;;;;;;1.85;0.70;;;18.10;58.50;18.40;101660.00;;;;4953466;28;94753;-69
2021/09/30 11:49:13;;;;;;;2.97;0.55;;;18.20;59.30;18.80;101659.00;;;;4968962;28;93039;-70
2021/09/30 11:51:49;;;;;;;0.32;0.32;;;18.50;59.20;18.90;101657.00;;;;4971678;28;92677;-70
2021/09/30 11:54:34;;;;;;;0.50;0.40;;;18.60;59.00;19.00;101657.00;;;;4969541;28;96522;-70
2021/09/30 11:57:00;;;;;;;1.55;0.60;;;18.70;58.80;19.30;101660.00;;;;4970528;28;106648;-69
2021/09/30 11:59:29;;;;;;;1.10;0.40;;;19.00;59.30;19.60;101654.00;;;;4970109;28;111034;-69
2021/09/30 12:02:06;;;;;;;1.33;0.47;;;19.20;59.10;19.90;101662.00;;;;4971341;28;92847;-69
2021/09/30 12:04:41;;;;;;;3.05;0.73;;;19.50;57.70;19.70;101658.00;;;;4969123;28;93644;-69
2021/09/30 12:07:28;;;;;;;3.35;1.15;;;19.50;54.90;19.30;101663.00;;;;4955648;28;93192;-70
2021/09/30 12:09:58;;;;;;;0.60;0.60;;;19.20;55.90;19.00;101655.00;;;;4951146;28;93096;-69
2021/09/30 12:12:35;;;;;;;0.40;0.40;;;18.90;56.70;19.20;101661.00;;;;4968147;28;92381;-70
2021/09/30 12:15:03;;;;;;;0.40;0.40;;;19.00;57.00;19.20;101660.00;;;;4936024;28;106787;-70
2021/09/30 12:17:36;;;;;;;0.40;0.40;;;19.00;56.80;19.10;101667.00;;;;4969858;28;103967;-68
2021/09/30 12:20:09;;;;;;;1.30;0.40;;;19.40;56.70;18.90;101658.00;;;;4963714;28;93922;-71
2021/09/30 12:22:40;;;;;;;2.15;0.70;;;18.80;56.40;18.50;101666.00;;;;4970624;28;92751;-68
2021/09/30 12:25:16;;;;;;;1.67;0.73;;;18.50;57.00;18.20;101658.00;;;;4969842;28;93762;-68
2021/09/30 12:27:48;;;;;;;0.80;0.50;;;18.20;57.40;18.30;101661.00;;;;4951557;28;106996;-69
2021/09/30 12:30:21;;;;;;;1.05;0.60;;;18.20;58.20;18.70;101664.00;;;;4970373;28;92930;-69
2021/09/30 12:32:51;;;;;;;3.17;0.57;;;18.40;58.80;18.80;101664.00;;;;4952771;28;93109;-69
2021/09/30 12:35:33;;;;;;;0.70;0.70;;;18.50;58.80;18.70;101659.00;;;;4970152;28;93282;-69
2021/09/30 12:38:03;;;;;;;0.50;0.50;;;18.50;58.90;18.50;101663.00;;;;4955129;28;93034;-68
2021/09/30 12:40:39;;;;;;;1.00;0.60;;;18.40;58.50;18.20;101663.00;;;;4970279;28;95341;-69
2021/09/30 12:43:18;;;;;;;2.08;0.60;;;18.10;59.00;18.00;101663.00;;;;4971001;28;92860;-68
2021/09/30 12:45:47;;;;;;;2.30;0.57;;;17.90;59.80;18.20;101663.00;;;;4969443;28;95427;-68
2021/09/30 12:48:16;;;;;;;0.52;0.47;;;17.90;59.80;18.50;101656.00;;;;4952855;28;93074;-68
2021/09/30 12:50:50;;;;;;;1.02;0.63;;;18.10;60.60;19.00;101656.00;;;;4951888;28;92991;-68
2021/09/30 12:53:20;;;;;;;1.05;0.57;;;18.50;59.90;19.20;101646.00;;;;4971657;28;93696;-70
2021/09/30 12:55:50;;;;;;;1.55;0.73;;;18.80;58.80;19.20;101656.00;;;;4969940;28;102262;-72
2021/09/30 12:58:31;;;;;;;1.70;0.65;;;18.90;58.00;19.00;101648.00;;;;4950922;28;95814;-68
2021/09/30 13:01:00;;;;;;;2.05;0.60;;;18.80;57.40;18.80;101651.00;;;;4970019;28;94069;-70
2021/09/30 13:03:27;;;;;;;0.50;0.50;;;18.60;57.60;18.80;101648.00;;;;4946869;28;92174;-70
2021/09/30 13:05:56;;;;;;;0.57;0.50;;;18.60;57.50;19.00;101635.00;;;;4969984;28;94148;-68
2021/09/30 13:08:41;;;;;;;1.30;1.05;;;18.70;57.70;19.20;101631.00;;;;4951595;28;93055;-71
2021/09/30 13:11:26;;;;;;;1.40;0.43;;;18.80;57.70;19.20;101626.00;;;;4951308;28;94198;-68
2021/09/30 13:14:19;;;;;;;0.75;0.60;;;18.90;57.20;19.20;101624.00;;;;4970444;28;93178;-68
2021/09/30 13:16:56;;;;;;;0.93;0.65;;;19.00;56.10;19.30;101636.00;;;;4951408;28;94599;-69
2021/09/30 13:19:54;;;;;;;1.48;0.47;;;19.00;56.10;19.30;101628.00;;;;4951656;28;102575;-68
2021/09/30 13:22:29;;;;;;;1.05;0.50;;;19.10;55.30;19.10;101634.00;;;;4953321;28;93006;-69
2021/09/30 13:24:57;;;;;;;0.30;0.30;;;18.90;55.20;18.80;101625.00;;;;4968056;28;92954;-68
2021/09/30 13:27:29;;;;;;;0.40;0.40;;;18.60;55.80;18.30;101626.00;;;;4935329;28;93403;-68
2021/09/30 13:29:56;;;;;;;1.42;0.43;;;18.30;55.90;18.10;101628.00;;;;4961484;28;93435;-70
2021/09/30 13:32:27;;;;;;;2.95;0.75;;;18.10;56.50;17.90;101628.00;;;;4974680;28;92758;-70
2021/09/30 13:34:55;;;;;;;0.57;0.57;;;17.90;57.20;17.80;101621.00;;;;4950718;28;92682;-67
2021/09/30 13:37:21;;;;;;;0.43;0.43;;;17.70;57.90;17.90;101635.00;;;;4950896;28;96203;-70
2021/09/30 13:39:48;;;;;;;0.45;0.38;;;17.70;58.30;18.00;101644.00;;;;4969449;28;94228;-69
2021/09/30 13:42:14;;;;;;;0.65;0.52;;;17.70;58.90;18.10;101635.00;;;;4972830;28;92833;-70
2021/09/30 13:44:40;;;;;;;1.42;0.40;;;17.90;58.60;18.00;101639.00;;;;4979396;28;93190;-71
2021/09/30 13:47:06;;;;;;;2.05;0.30;;;17.90;58.30;17.90;101633.00;;;;4961032;28;94010;-70